Currently 73°F in San Jacinto, California, USA
73°F
101°F / 65°F
calm
0.00"
Tuesday, June 27, 2017 11:58 PM PDT

San Jacinto, California Weather Summary
Last 36 Hours

Temperature Winds Hourly Humidity Dewpoint
Time Report Norm Report Norm Max Gusts Precip. Rpt. Norm Rpt. Norm Pressure
1Tue 11:58 PM  73.2°F  71°F  calm  1 mph  none  0.00"  30%  55%  39°F  54°F  29.91"
Tue 11:00 PM  75.6°F  73°F  calm  1 mph  2 mph  0.00"  26%  51%  37°F  53°F  29.90"
Tue 10:00 PM  78.3°F  75°F  1 mph SE  1 mph  5 mph  0.00"  23%  47%  36°F  52°F  29.90"
Tue 09:00 PM  81.9°F  77°F  calm  1 mph  9 mph  0.00"  21%  42%  37°F  51°F  29.88"
Tue 08:00 PM  85.5°F  80°F  6 mph SW  2 mph  15 mph  0.00"  18%  35%  36°F  49°F  29.87"
Tue 07:00 PM  90.0°F  85°F  9 mph SW  3 mph  17 mph  0.00"  16%  29%  36°F  48°F  29.85"
Tue 06:00 PM  93.6°F  88°F  11 mph SW  4 mph  17 mph  0.00"  14%  25%  36°F  47°F  29.85"
Tue 05:00 PM  95.7°F  90°F  8 mph SW  5 mph  22 mph  0.00"  13%  23%  35°F  46°F  29.85"
Tue 04:00 PM  97.5°F  92°F  12 mph SW  5 mph  18 mph  0.00"  12%  20%  35°F  44°F  29.86"
Tue 03:00 PM  99.0°F  93°F  10 mph SW  4 mph  20 mph  0.00"  12%  18%  36°F  42°F  29.87"
2Tue 02:23 PM  101.1°F  93°F  8 mph W  4 mph  16 mph  ----  8%  18%  27°F  42°F  29.87"
Tue 02:00 PM  100.6°F  93°F  5 mph W  4 mph  24 mph  0.00"  8%  19%  26°F  42°F  29.88"
Tue 01:00 PM  99.0°F  91°F  6 mph S  3 mph  11 mph  0.00"  11%  20%  33°F  44°F  29.90"
Tue 12:00 PM  96.1°F  88°F  5 mph N  2 mph  11 mph  0.00"  8%  24%  23°F  46°F  29.92"
Tue 11:00 AM  95.2°F  84°F  2 mph S  1 mph  7 mph  0.00"  10%  29%  28°F  47°F  29.93"
Tue 10:00 AM  92.7°F  79°F  calm  1 mph  3 mph  0.00"  14%  37%  35°F  50°F  29.93"
Tue 09:00 AM  84.6°F  74°F  calm  calm  2 mph  0.00"  19%  46%  36°F  52°F  29.94"
Tue 08:00 AM  76.6°F  70°F  calm  calm  2 mph  0.00"  22%  54%  33°F  51°F  29.94"
Tue 07:00 AM  68.5°F  65°F  calm  calm  3 mph  0.00"  30%  61%  35°F  51°F  29.94"
Tue 06:00 AM  64.9°F  63°F  calm  calm  2 mph  0.00"  33%  66%  34°F  51°F  29.93"
3Tue 05:46 AM  64.9°F  63°F  calm  calm  1 mph  ----  33%  66%  34°F  51°F  29.93"
Tue 05:00 AM  65.5°F  63°F  calm  calm  5 mph  0.00"  35%  65%  36°F  51°F  29.92"
Tue 04:00 AM  69.1°F  65°F  1 mph E  calm  5 mph  0.00"  27%  63%  32°F  51°F  29.91"
Tue 03:00 AM  69.8°F  66°F  calm  calm  1 mph  0.00"  27%  62%  33°F  52°F  29.92"
Tue 02:00 AM  72.1°F  67°F  calm  calm  none  0.00"  26%  61%  34°F  53°F  29.92"
Tue 01:01 AM  73.6°F  69°F  calm  calm  7 mph  0.00"  27%  59%  36°F  53°F  29.93"
Tue 12:00 AM  78.6°F  70°F  3 mph SE  1 mph  8 mph  0.00"  21%  56%  34°F  53°F  29.94"
Mon 11:00 PM  80.4°F  73°F  1 mph SE  calm  7 mph  0.00"  19%  52%  33°F  53°F  29.95"
Mon 10:00 PM  82.2°F  75°F  calm  calm  3 mph  0.00"  21%  47%  37°F  52°F  29.95"
Mon 09:00 PM  85.1°F  77°F  3 mph NW  1 mph  13 mph  0.00"  19%  43%  37°F  51°F  29.93"
Mon 08:00 PM  91.0°F  80°F  8 mph NW  1 mph  15 mph  0.00"  13%  36%  32°F  50°F  29.92"
Mon 07:00 PM  97.0°F  85°F  7 mph NW  3 mph  17 mph  0.00"  10%  29%  29°F  48°F  29.91"
Mon 06:00 PM  100.2°F  88°F  9 mph W  4 mph  23 mph  0.00"  9%  26%  29°F  47°F  29.91"
Mon 05:00 PM  101.5°F  90°F  14 mph NW  5 mph  25 mph  0.00"  8%  24%  27°F  47°F  29.92"
Mon 04:00 PM  102.9°F  92°F  15 mph W  5 mph  25 mph  0.00"  7%  21%  25°F  45°F  29.93"
Mon 03:00 PM  103.5°F  93°F  12 mph NW  4 mph  26 mph  0.00"  7%  19%  25°F  43°F  29.94"
Mon 02:00 PM  103.5°F  92°F  16 mph W  4 mph  30 mph  0.00"  6%  19%  21°F  43°F  29.94"
Mon 01:00 PM  102.7°F  91°F  16 mph NW  3 mph  24 mph  0.00"  6%  21%  21°F  44°F  29.95"
Mon 12:00 PM  102.0°F  88°F  10 mph NW  2 mph  18 mph  0.00"  7%  24%  24°F  46°F  29.96"

  1. Current weather data. No green row appears if the current weather data is also the high or low for the current day.
  2. High temperature for the current day.
  3. Low temperature for the current day.

The San Jacinto, California weather pages are a service of WeatherCurrents. San Jacinto is located in the heart of the San Jacinto Valley, near Hemet, the Soboba Casino, and at the foot of the San Jacinto Mountains.
Copyright ©Tue Jun 27 23:59:45 PDT 2017  WeatherCurrents. All rights reserved. - Submit questions and comments - Privacy Policy

This page automatically refreshes every 10 minutes.